createdAt,value
2023-01-06T00:01:27.272Z,2.70
2023-01-06T00:03:59.604Z,1.90
2023-01-06T00:06:29.011Z,2.60
2023-01-06T00:09:00.783Z,2.50
2023-01-06T00:11:28.873Z,2.40
2023-01-06T00:13:56.691Z,2.60
2023-01-06T00:16:24.840Z,4.00
2023-01-06T00:18:57.528Z,4.00
2023-01-06T00:21:26.160Z,2.20
2023-01-06T00:23:54.281Z,3.60
2023-01-06T00:26:22.398Z,3.40
2023-01-06T00:28:55.586Z,4.60
2023-01-06T00:31:24.027Z,4.10
2023-01-06T00:33:52.328Z,4.70
2023-01-06T00:36:21.877Z,4.40
2023-01-06T00:38:51.057Z,3.60
2023-01-06T00:41:38.419Z,4.80
2023-01-06T00:44:06.592Z,3.80
2023-01-06T00:46:34.911Z,4.20
2023-01-06T00:49:06.196Z,4.50
2023-01-06T00:51:39.823Z,3.10
2023-01-06T00:54:09.637Z,4.70
2023-01-06T00:56:43.599Z,3.50
2023-01-06T00:59:14.036Z,4.20
2023-01-06T01:01:42.765Z,3.20
2023-01-06T01:04:11.637Z,4.10
2023-01-06T01:06:45.417Z,4.00
2023-01-06T01:09:17.119Z,3.30
2023-01-06T01:12:04.011Z,4.00
2023-01-06T01:14:32.164Z,3.60
2023-01-06T01:17:00.244Z,3.40
2023-01-06T01:19:28.644Z,3.40
2023-01-06T01:21:56.838Z,3.70
2023-01-06T01:24:24.846Z,4.60
2023-01-06T01:26:52.837Z,4.30
2023-01-06T01:29:20.758Z,3.50
2023-01-06T01:31:50.939Z,3.40
2023-01-06T01:34:19.103Z,3.90
2023-01-06T01:36:48.770Z,5.00
2023-01-06T01:39:18.901Z,4.60
2023-01-06T01:41:47.063Z,4.40
2023-01-06T01:44:57.174Z,4.80
2023-01-06T01:47:48.385Z,3.90
2023-01-06T01:50:30.280Z,3.80
2023-01-06T01:53:21.074Z,3.30
2023-01-06T01:55:50.871Z,4.00
2023-01-06T01:58:23.675Z,4.40
2023-01-06T02:00:52.856Z,4.70
2023-01-06T02:03:21.622Z,4.80
2023-01-06T02:05:53.549Z,4.70
2023-01-06T02:08:29.046Z,5.30
2023-01-06T02:10:57.699Z,4.30
2023-01-06T02:13:27.506Z,4.10
2023-01-06T02:16:11.816Z,2.50
2023-01-06T02:19:05.367Z,2.90
2023-01-06T02:21:51.538Z,3.20
2023-01-06T02:24:53.906Z,2.90
2023-01-06T02:27:47.154Z,3.10
2023-01-06T02:30:27.273Z,2.90
2023-01-06T02:33:05.010Z,2.60
2023-01-06T02:35:51.738Z,3.30
2023-01-06T02:38:39.594Z,4.10
2023-01-06T02:41:18.351Z,4.30
2023-01-06T02:44:02.679Z,5.30
2023-01-06T02:46:56.151Z,3.50
2023-01-06T02:49:42.526Z,3.40
2023-01-06T02:52:44.846Z,2.80
2023-01-06T02:55:25.203Z,3.00
2023-01-06T02:58:30.039Z,3.40
2023-01-06T03:01:12.056Z,3.10
2023-01-06T03:03:43.473Z,2.80
2023-01-06T03:06:15.553Z,3.70
2023-01-06T03:08:45.408Z,3.20
2023-01-06T03:11:13.779Z,3.80
2023-01-06T03:14:00.049Z,3.80
2023-01-06T03:16:29.254Z,3.70
2023-01-06T03:18:57.293Z,6.70
2023-01-06T03:21:35.299Z,5.00
2023-01-06T03:24:06.250Z,5.00
2023-01-06T03:26:34.262Z,5.90
2023-01-06T03:29:02.293Z,5.60
2023-01-06T03:32:02.178Z,3.80
2023-01-06T03:35:08.021Z,3.80
2023-01-06T03:38:10.148Z,3.30
2023-01-06T03:40:59.186Z,3.20
2023-01-06T03:43:49.421Z,4.00
2023-01-06T03:46:56.281Z,3.50
2023-01-06T03:49:32.799Z,4.00
2023-01-06T03:52:05.787Z,5.20
2023-01-06T03:54:57.213Z,4.90
2023-01-06T03:57:28.942Z,3.80
2023-01-06T04:00:02.076Z,3.50
2023-01-06T04:02:30.563Z,3.70
2023-01-06T04:05:19.839Z,3.30
2023-01-06T04:07:48.167Z,3.70
2023-01-06T04:10:17.826Z,4.60
2023-01-06T04:12:47.090Z,4.50
2023-01-06T04:15:23.626Z,3.70
2023-01-06T04:17:52.484Z,3.80
2023-01-06T04:20:27.120Z,3.10
2023-01-06T04:23:00.600Z,3.50
2023-01-06T04:25:32.967Z,3.20
2023-01-06T04:28:07.686Z,3.50
2023-01-06T04:30:36.046Z,3.20
2023-01-06T04:33:04.621Z,2.80
2023-01-06T04:35:33.472Z,3.00
2023-01-06T04:38:03.549Z,3.10
2023-01-06T04:40:31.427Z,3.40
2023-01-06T04:43:05.233Z,3.50
2023-01-06T04:45:37.078Z,3.20
2023-01-06T04:48:05.545Z,3.10
2023-01-06T04:50:33.470Z,3.00
2023-01-06T04:53:03.617Z,3.20
2023-01-06T04:55:31.486Z,3.70
2023-01-06T04:58:01.305Z,3.10
2023-01-06T05:00:29.375Z,3.70
2023-01-06T05:02:57.352Z,3.20
2023-01-06T05:05:25.656Z,4.20
2023-01-06T05:07:55.038Z,3.70
2023-01-06T05:10:23.204Z,3.30
2023-01-06T05:12:51.368Z,4.00
2023-01-06T05:15:19.639Z,3.80
2023-01-06T05:17:47.517Z,3.40
2023-01-06T05:20:15.623Z,3.50
2023-01-06T05:22:43.463Z,4.20
2023-01-06T05:25:11.226Z,4.40
2023-01-06T05:27:39.384Z,3.30
2023-01-06T05:30:08.405Z,3.60
2023-01-06T05:32:36.407Z,4.60
2023-01-06T05:35:04.571Z,3.90
2023-01-06T05:37:32.542Z,3.90
2023-01-06T05:40:00.277Z,4.00
2023-01-06T05:42:28.224Z,4.20
2023-01-06T05:44:56.260Z,5.10
2023-01-06T05:47:24.149Z,4.30
2023-01-06T05:49:52.094Z,4.20
2023-01-06T05:52:20.127Z,3.70
2023-01-06T05:54:47.989Z,4.30
2023-01-06T05:57:15.745Z,3.90
2023-01-06T05:59:43.621Z,4.00
2023-01-06T06:02:11.590Z,3.80
2023-01-06T06:04:39.915Z,4.00
2023-01-06T06:07:07.862Z,4.90
2023-01-06T06:09:35.853Z,4.90
2023-01-06T06:12:03.888Z,4.00
2023-01-06T06:14:31.805Z,4.80
2023-01-06T06:16:59.728Z,4.30
2023-01-06T06:19:27.810Z,4.90
2023-01-06T06:21:55.988Z,4.70
2023-01-06T06:24:23.855Z,5.00
2023-01-06T06:26:51.867Z,5.00
2023-01-06T06:29:19.777Z,5.30
2023-01-06T06:31:47.757Z,4.60
2023-01-06T06:34:15.683Z,5.50
2023-01-06T06:36:43.635Z,6.30
2023-01-06T06:39:11.480Z,6.00
2023-01-06T06:41:40.438Z,5.80
2023-01-06T06:44:08.243Z,6.10
2023-01-06T06:46:36.234Z,5.30
2023-01-06T06:49:04.057Z,5.80
2023-01-06T06:51:32.051Z,6.20
2023-01-06T06:54:00.128Z,7.20
2023-01-06T06:56:28.035Z,10.00
2023-01-06T06:58:56.023Z,8.80
2023-01-06T07:01:24.029Z,8.10
2023-01-06T07:03:52.031Z,8.70
2023-01-06T07:06:21.933Z,8.30
2023-01-06T07:08:49.935Z,9.50
2023-01-06T07:11:18.100Z,9.40
2023-01-06T07:13:45.981Z,9.90
2023-01-06T07:16:14.023Z,8.60
2023-01-06T07:18:42.163Z,8.70
2023-01-06T07:21:11.209Z,8.70
2023-01-06T07:23:39.053Z,14.50
2023-01-06T07:26:06.803Z,16.50
2023-01-06T07:28:35.749Z,19.70
2023-01-06T07:31:03.923Z,13.10
2023-01-06T07:33:31.883Z,12.90
2023-01-06T07:36:00.964Z,13.10
2023-01-06T07:38:28.821Z,13.30
2023-01-06T07:41:00.996Z,12.60
2023-01-06T07:43:29.668Z,12.30
2023-01-06T07:45:57.734Z,10.90
2023-01-06T07:48:25.829Z,12.50
2023-01-06T07:50:54.626Z,11.30
2023-01-06T07:53:22.745Z,15.10
2023-01-06T07:55:52.831Z,17.20
2023-01-06T07:58:21.484Z,12.90
2023-01-06T08:00:50.279Z,9.40
2023-01-06T08:03:18.229Z,10.20
2023-01-06T08:05:47.209Z,8.80
2023-01-06T08:08:15.214Z,7.80
2023-01-06T08:10:43.482Z,6.70
2023-01-06T08:13:12.498Z,7.00
2023-01-06T08:15:41.002Z,7.00
2023-01-06T08:18:09.042Z,8.30
2023-01-06T08:20:37.690Z,8.40
2023-01-06T08:23:05.483Z,9.60
2023-01-06T08:25:33.378Z,10.90
2023-01-06T08:28:01.767Z,9.30
2023-01-06T08:30:29.937Z,9.70
2023-01-06T08:32:58.958Z,7.80
2023-01-06T08:35:27.716Z,8.70
2023-01-06T08:37:55.749Z,8.00
2023-01-06T08:40:23.733Z,5.80
2023-01-06T08:42:52.821Z,6.80
2023-01-06T08:45:20.693Z,9.40
2023-01-06T08:47:48.493Z,8.80
2023-01-06T08:50:16.312Z,8.40
2023-01-06T08:52:44.414Z,9.80
2023-01-06T08:55:12.591Z,8.40
2023-01-06T08:57:40.657Z,8.70
2023-01-06T09:00:09.671Z,10.10
2023-01-06T09:02:38.727Z,11.30
2023-01-06T09:05:07.887Z,10.60
2023-01-06T09:07:35.928Z,9.50
2023-01-06T09:10:06.674Z,8.20
2023-01-06T09:12:34.823Z,7.60
2023-01-06T09:15:02.887Z,5.90
2023-01-06T09:17:30.772Z,6.80
2023-01-06T09:19:58.737Z,5.80
2023-01-06T09:22:26.691Z,5.70
2023-01-06T09:24:54.444Z,5.90
2023-01-06T09:27:23.444Z,7.20
2023-01-06T09:29:51.455Z,6.00
2023-01-06T09:32:19.420Z,7.60
2023-01-06T09:34:47.281Z,8.90
2023-01-06T09:37:15.285Z,8.30
2023-01-06T09:39:43.267Z,7.90
2023-01-06T09:42:42.283Z,8.50
2023-01-06T09:45:21.015Z,7.20
2023-01-06T09:47:52.589Z,6.00
2023-01-06T09:50:42.030Z,6.20
2023-01-06T09:53:16.488Z,6.10
2023-01-06T09:55:47.531Z,6.60
2023-01-06T09:58:25.360Z,8.50
2023-01-06T10:00:56.045Z,8.20
2023-01-06T10:03:27.369Z,8.20
2023-01-06T10:06:29.291Z,8.60
2023-01-06T10:09:30.502Z,8.50
2023-01-06T10:12:25.036Z,8.10
2023-01-06T10:15:02.118Z,7.80
2023-01-06T10:17:57.970Z,8.30
2023-01-06T10:20:54.819Z,9.60
2023-01-06T10:23:59.974Z,7.30
2023-01-06T10:26:50.773Z,5.40
2023-01-06T10:29:19.754Z,6.10
2023-01-06T10:31:48.961Z,5.70
2023-01-06T10:34:26.572Z,5.20
2023-01-06T10:37:12.110Z,4.70
2023-01-06T10:39:40.536Z,4.90
2023-01-06T10:43:00.416Z,5.00
2023-01-06T10:45:44.364Z,4.50
2023-01-06T10:48:33.811Z,5.70
2023-01-06T10:51:37.054Z,6.30
2023-01-06T10:54:10.182Z,6.00
2023-01-06T10:56:39.142Z,5.70
2023-01-06T10:59:09.603Z,5.50
2023-01-06T11:01:59.169Z,5.80
2023-01-06T11:04:27.914Z,6.50
2023-01-06T11:07:02.113Z,6.40
2023-01-06T11:09:42.990Z,7.10
2023-01-06T11:12:20.492Z,6.20
2023-01-06T11:15:03.960Z,6.10
2023-01-06T11:17:32.266Z,6.30
2023-01-06T11:20:32.280Z,5.80
2023-01-06T11:23:33.061Z,5.50
2023-01-06T11:26:15.625Z,6.00
2023-01-06T11:28:47.857Z,5.20
2023-01-06T11:31:16.145Z,6.10
2023-01-06T11:33:55.741Z,6.80
2023-01-06T11:36:25.537Z,7.70
2023-01-06T11:39:02.677Z,6.40
2023-01-06T11:41:38.346Z,8.50
2023-01-06T11:44:38.499Z,7.80
2023-01-06T11:47:16.065Z,6.80
2023-01-06T11:49:51.822Z,6.10
2023-01-06T11:52:31.413Z,6.00
2023-01-06T11:55:23.832Z,6.10
2023-01-06T11:58:17.575Z,6.40
2023-01-06T12:00:54.855Z,6.00
2023-01-06T12:03:41.539Z,6.50
2023-01-06T12:06:34.891Z,6.80
2023-01-06T12:09:30.373Z,6.40
2023-01-06T12:12:03.072Z,6.30
2023-01-06T12:14:36.623Z,6.60
2023-01-06T12:17:22.896Z,6.50
2023-01-06T12:19:57.257Z,7.00
2023-01-06T12:22:40.797Z,7.40
2023-01-06T12:25:25.358Z,7.30
2023-01-06T12:28:13.872Z,7.10
2023-01-06T12:31:27.841Z,7.60
2023-01-06T12:34:18.065Z,7.60
2023-01-06T12:37:27.668Z,8.80
2023-01-06T12:40:17.614Z,7.40
2023-01-06T12:43:17.905Z,8.20
2023-01-06T12:46:11.909Z,9.00
2023-01-06T12:48:57.895Z,8.50
2023-01-06T12:52:03.793Z,8.50
2023-01-06T12:54:35.986Z,9.90
2023-01-06T12:57:44.264Z,9.30
2023-01-06T13:00:14.842Z,6.70
2023-01-06T13:03:44.763Z,8.00
2023-01-06T13:06:26.313Z,7.40
2023-01-06T13:09:53.511Z,8.30
2023-01-06T13:12:43.568Z,7.90
2023-01-06T13:15:27.841Z,9.20
2023-01-06T13:18:18.341Z,8.30
2023-01-06T13:21:08.708Z,8.10
2023-01-06T13:24:03.099Z,9.00
2023-01-06T13:27:09.610Z,9.00
2023-01-06T13:30:13.125Z,8.90
2023-01-06T13:33:02.452Z,8.20
2023-01-06T13:36:35.673Z,8.40
2023-01-06T13:39:07.852Z,7.50
2023-01-06T13:41:40.599Z,8.30
2023-01-06T13:44:22.725Z,8.40
2023-01-06T13:46:51.043Z,7.80
2023-01-06T13:49:19.554Z,8.30
2023-01-06T13:51:47.612Z,7.40
2023-01-06T13:54:40.642Z,7.70
2023-01-06T13:57:19.759Z,7.50
2023-01-06T14:00:35.012Z,7.60
2023-01-06T14:03:14.567Z,7.40
2023-01-06T14:05:42.408Z,8.00
2023-01-06T14:08:18.428Z,6.90
2023-01-06T14:10:46.576Z,7.10
2023-01-06T14:13:37.000Z,7.40
2023-01-06T14:16:12.661Z,7.60
2023-01-06T14:18:43.836Z,8.90
2023-01-06T14:21:15.042Z,7.90
2023-01-06T14:24:08.373Z,9.30
2023-01-06T14:26:58.529Z,8.20
2023-01-06T14:29:45.139Z,9.10
2023-01-06T14:32:17.129Z,9.80
2023-01-06T14:34:54.785Z,10.10
2023-01-06T14:37:26.439Z,9.60
2023-01-06T14:39:55.486Z,10.60
2023-01-06T14:42:37.157Z,9.60
2023-01-06T14:45:33.532Z,9.90
2023-01-06T14:48:10.393Z,9.50
2023-01-06T14:50:49.187Z,11.00
2023-01-06T14:53:41.438Z,10.00
2023-01-06T14:56:19.585Z,10.40
2023-01-06T14:58:47.632Z,9.50
2023-01-06T15:01:25.232Z,9.90
2023-01-06T15:03:59.113Z,9.60
2023-01-06T15:06:28.414Z,9.00
2023-01-06T15:09:12.565Z,10.60
2023-01-06T15:11:42.042Z,10.50
2023-01-06T15:14:31.853Z,11.30
2023-01-06T15:17:04.208Z,10.70
2023-01-06T15:19:33.075Z,11.60
2023-01-06T15:22:01.227Z,11.80
2023-01-06T15:24:35.502Z,11.40
2023-01-06T15:27:05.738Z,11.70
2023-01-06T15:29:33.677Z,10.70
2023-01-06T15:32:01.759Z,11.40
2023-01-06T15:34:37.146Z,11.00
2023-01-06T15:37:07.125Z,10.40
2023-01-06T15:39:35.451Z,10.50
2023-01-06T15:42:05.600Z,10.20
2023-01-06T15:44:36.136Z,10.00
2023-01-06T15:47:13.364Z,9.90
2023-01-06T15:49:53.614Z,9.60
2023-01-06T15:52:39.713Z,10.10
2023-01-06T15:55:18.137Z,9.70
2023-01-06T15:58:01.361Z,9.00
2023-01-06T16:01:00.531Z,7.00
2023-01-06T16:03:30.746Z,9.10
2023-01-06T16:06:12.789Z,8.30
2023-01-06T16:08:42.129Z,8.90
2023-01-06T16:11:16.221Z,9.10
2023-01-06T16:13:58.006Z,9.10
2023-01-06T16:16:31.779Z,8.20
2023-01-06T16:19:08.858Z,7.80
2023-01-06T16:21:37.103Z,7.20
2023-01-06T16:24:05.760Z,9.80
2023-01-06T16:26:41.087Z,8.10
2023-01-06T16:29:36.412Z,8.80
2023-01-06T16:32:21.019Z,7.90
2023-01-06T16:34:52.784Z,9.30
2023-01-06T16:37:20.784Z,9.30
2023-01-06T16:39:48.888Z,9.30
2023-01-06T16:42:39.510Z,9.40
2023-01-06T16:45:18.081Z,8.00
2023-01-06T16:47:46.302Z,9.10
2023-01-06T16:50:31.084Z,8.70
2023-01-06T16:53:12.794Z,8.10
2023-01-06T16:55:41.295Z,9.20
2023-01-06T16:58:20.281Z,9.00
2023-01-06T17:00:54.517Z,8.20
2023-01-06T17:03:36.572Z,8.70
2023-01-06T17:06:10.567Z,9.70
2023-01-06T17:08:38.664Z,9.20
2023-01-06T17:11:18.532Z,11.40
2023-01-06T17:13:58.419Z,11.30
2023-01-06T17:16:31.217Z,9.50
2023-01-06T17:19:03.996Z,11.60
2023-01-06T17:21:37.288Z,10.50
2023-01-06T17:24:08.104Z,10.70
2023-01-06T17:26:36.054Z,14.30
2023-01-06T17:29:16.260Z,12.60
2023-01-06T17:31:46.400Z,12.20
2023-01-06T17:34:38.538Z,12.70
2023-01-06T17:37:23.574Z,12.40
2023-01-06T17:39:51.793Z,15.20
2023-01-06T17:42:36.157Z,11.40
2023-01-06T17:45:17.891Z,13.70
2023-01-06T17:47:49.048Z,13.10
2023-01-06T17:50:27.705Z,13.70
2023-01-06T17:53:29.507Z,9.60
2023-01-06T17:55:59.838Z,11.90
2023-01-06T17:58:31.545Z,12.40
2023-01-06T18:00:59.600Z,14.40
2023-01-06T18:03:31.753Z,13.30
2023-01-06T18:06:19.065Z,14.20
2023-01-06T18:08:47.159Z,13.80
2023-01-06T18:11:24.885Z,14.20
2023-01-06T18:13:53.799Z,11.10
2023-01-06T18:16:21.726Z,12.90
2023-01-06T18:18:49.768Z,14.50
2023-01-06T18:21:28.113Z,14.40
2023-01-06T18:23:56.090Z,14.40
2023-01-06T18:26:27.083Z,14.00
2023-01-06T18:29:00.359Z,12.60
2023-01-06T18:31:34.165Z,13.70
2023-01-06T18:34:27.385Z,13.40
2023-01-06T18:36:56.827Z,15.00
2023-01-06T18:39:31.461Z,16.70
2023-01-06T18:42:19.430Z,15.00
2023-01-06T18:44:47.689Z,16.40
2023-01-06T18:47:19.396Z,15.40
2023-01-06T18:49:47.506Z,16.60
2023-01-06T18:52:45.520Z,16.80
2023-01-06T18:55:37.148Z,16.80
2023-01-06T18:58:42.064Z,16.80
2023-01-06T19:01:23.949Z,15.90
2023-01-06T19:04:30.347Z,16.80
2023-01-06T19:07:18.149Z,15.10
2023-01-06T19:09:47.530Z,15.90
2023-01-06T19:12:15.272Z,16.50
2023-01-06T19:14:50.050Z,16.70
2023-01-06T19:17:27.765Z,15.60
2023-01-06T19:19:56.946Z,15.90
2023-01-06T19:22:27.531Z,15.50
2023-01-06T19:25:21.661Z,15.90
2023-01-06T19:27:50.980Z,16.30
2023-01-06T19:30:38.693Z,16.00
2023-01-06T19:33:23.454Z,16.00
2023-01-06T19:36:27.918Z,16.80
2023-01-06T19:38:55.910Z,14.40
2023-01-06T19:41:28.575Z,14.90
2023-01-06T19:44:05.707Z,14.20
2023-01-06T19:46:51.564Z,14.70
2023-01-06T19:49:23.662Z,13.00
2023-01-06T19:51:54.037Z,14.40
2023-01-06T19:54:27.334Z,13.70
2023-01-06T19:56:56.016Z,12.90
2023-01-06T19:59:42.122Z,12.10
2023-01-06T20:02:10.033Z,12.80
2023-01-06T20:04:38.160Z,13.00
2023-01-06T20:07:06.427Z,11.90
2023-01-06T20:09:34.271Z,13.20
2023-01-06T20:12:02.053Z,13.00
2023-01-06T20:14:30.121Z,12.70
2023-01-06T20:16:59.535Z,11.00
2023-01-06T20:19:27.495Z,12.60
2023-01-06T20:21:55.428Z,11.30
2023-01-06T20:24:23.438Z,10.90
2023-01-06T20:26:51.273Z,11.00
2023-01-06T20:29:19.224Z,11.20
2023-01-06T20:31:48.237Z,10.10
2023-01-06T20:34:16.275Z,11.40
2023-01-06T20:36:44.293Z,11.70
2023-01-06T20:39:15.156Z,9.40
2023-01-06T20:41:42.917Z,8.90
2023-01-06T20:44:10.704Z,11.20
2023-01-06T20:46:39.168Z,10.40
2023-01-06T20:49:07.201Z,11.90
2023-01-06T20:51:35.028Z,9.60
2023-01-06T20:54:02.876Z,10.10
2023-01-06T20:56:30.854Z,11.00
2023-01-06T20:58:58.764Z,9.20
2023-01-06T21:01:26.797Z,10.80
2023-01-06T21:03:54.709Z,11.60
2023-01-06T21:06:22.713Z,11.40
2023-01-06T21:08:50.773Z,10.40
2023-01-06T21:11:18.603Z,10.10
2023-01-06T21:13:46.513Z,11.10
2023-01-06T21:16:14.548Z,10.60
2023-01-06T21:18:42.597Z,11.40
2023-01-06T21:21:10.390Z,12.30
2023-01-06T21:23:38.218Z,12.50
2023-01-06T21:26:06.169Z,13.40
2023-01-06T21:28:34.175Z,13.10
2023-01-06T21:31:02.058Z,12.40
2023-01-06T21:33:30.007Z,13.30
2023-01-06T21:35:58.834Z,12.30
2023-01-06T21:38:26.721Z,10.90
2023-01-06T21:41:14.660Z,10.30
2023-01-06T21:43:42.521Z,12.60
2023-01-06T21:46:10.457Z,11.30
2023-01-06T21:48:38.460Z,10.40
2023-01-06T21:51:06.545Z,11.20
2023-01-06T21:53:34.437Z,12.60
2023-01-06T21:56:02.262Z,13.60
2023-01-06T21:58:30.006Z,12.40
2023-01-06T22:00:57.985Z,13.50
2023-01-06T22:03:25.804Z,14.70
2023-01-06T22:05:53.811Z,13.50
2023-01-06T22:08:21.875Z,13.20
2023-01-06T22:10:49.897Z,12.90
2023-01-06T22:13:20.484Z,13.50
2023-01-06T22:15:49.163Z,13.30
2023-01-06T22:18:17.343Z,15.00
2023-01-06T22:20:45.433Z,13.50
2023-01-06T22:23:18.020Z,13.00
2023-01-06T22:25:45.848Z,14.20
2023-01-06T22:28:13.766Z,13.50
2023-01-06T22:30:42.130Z,13.50
2023-01-06T22:33:10.011Z,13.00
2023-01-06T22:35:37.949Z,12.50
2023-01-06T22:38:05.995Z,12.00
2023-01-06T22:40:33.896Z,13.50
2023-01-06T22:43:05.362Z,11.40
2023-01-06T22:45:36.347Z,13.20
2023-01-06T22:48:04.187Z,11.80
2023-01-06T22:50:32.088Z,12.80
2023-01-06T22:53:00.173Z,11.70
2023-01-06T22:55:28.045Z,12.50
2023-01-06T22:57:55.989Z,11.40
2023-01-06T23:00:23.748Z,12.10
2023-01-06T23:02:51.630Z,12.50
2023-01-06T23:05:19.723Z,11.00
2023-01-06T23:07:47.640Z,12.80
2023-01-06T23:10:15.660Z,12.80
2023-01-06T23:12:43.633Z,13.00
2023-01-06T23:15:11.907Z,13.50
2023-01-06T23:17:39.634Z,12.80
2023-01-06T23:20:08.235Z,11.00
2023-01-06T23:22:37.295Z,13.60
2023-01-06T23:25:06.011Z,14.20
2023-01-06T23:27:33.722Z,12.70
2023-01-06T23:30:01.779Z,13.00
2023-01-06T23:32:29.561Z,14.40
2023-01-06T23:34:57.569Z,13.50
2023-01-06T23:37:25.308Z,13.20
2023-01-06T23:39:53.476Z,14.40
2023-01-06T23:42:21.388Z,13.80
2023-01-06T23:44:49.485Z,13.90
2023-01-06T23:47:17.268Z,13.20
2023-01-06T23:49:48.225Z,14.70
2023-01-06T23:52:16.116Z,13.20
2023-01-06T23:54:44.034Z,13.90
2023-01-06T23:57:12.051Z,15.00
2023-01-06T23:59:39.891Z,14.20
